岡山グライダークラブ活動状況掲示板あなたは無料カウンター人目の訪問者です

岡山グライダークラブ
岡山市浦安南町639-1 岡南飛行場
 使用機:シャイベ式 SF25C型 ファルケ   JA2330
      ヴァレンティン式17E型 タイフーン  JA2342
 練習日:毎日曜日  クラブルーム:電話 086-265-1810
この掲示板は岡山グライダークラブの活動状況をお知らせする掲示板です。
!!!この掲示板は投稿規制をしています。!!!
クラブ関連各種情報は 岡山グライダークラブクラブルーム      を       .
  ブリーフイング情報は  岡山グライダークラブブリーフィングルーム  をご覧下さい。 .
※写真はクリックすると拡大して見ることが出来ます。
岡南飛行場へのアクセス等は 岡南飛行場管理事務所 をご覧ください。
クラブの ホームページ ができました。

 
06月28日
by OGC at 2020/6/28(日) 23:25:06 No.20200628232235  削除コメント
1024 x 768 x 68,664バイト
No.1

06月28日
本日の参加者
  会員      14名
  その他      1名


@本日の様子






METAR
RJBK 280000Z 25007KT 15KM FEW010CU SCT025CU BKN060SC 25/23 Q1001 A2958
RJOB 280000Z 24003KT 200V290 4500 BR BCFG FEW000 SCT005 BKN010 24/23 Q1002
RJOT 280000Z 25010KT 9999 VCSH FEW005 SCT015 BKN040 23/21 Q1002
RJOA 280000Z 27005KT 230V300 9999 FEW002 SCT020 BKN/// 23/20 Q1003
TAF
RJOB 272306Z 2800/2906 24004KT 3000 -SHRA BR BCFG FEW000 SCT005 BKN008
     TEMPO 2800/2801 1500 -SHRA BR BCFG FEW000 SCT001 BKN003
     BECMG 2801/2803 36005KT 9999 NSW FEW025 BKN045
     BECMG 2900/2903 20006KT
RJOT 272309Z 2800/2906 26008KT 9999 FEW020
     BECMG 2812/2815 15005KT
RJOA 272306Z 2800/2906 32009KT 9999 FEW025
     BECMG 2821/2900 15005KT

本日は湿度が高くジメジメした一日で日差しが少なく、サーマルもほとんどないコンディションでした。
訓練生はTGL訓練やNAV訓練、ライセンサーは宇多津、笠岡へNAVに行っていました。



解散    18:50

1番機  11:00離陸 撤収機  18:25着陸 

SF25C JA2330 ファルケ     12Flt.4h00min  
17E   JA2342 タイフーン    03Flt.1h30min  
合計                    15Flt.5h30min

    << 戻る || ホームページ || 最新の掲示板へ